Time;durP1;ratioP1;P1;durP2;ratioP2;P2;SDS_P1;SDS_P2;PMS_P1;PMS_P2;Temp;Humidity;BMP_temperature;BMP_pressure;BME280_temperature;BME280_humidity;BME280_pressure;Samples;Min_cycle;Max_cycle;Signal;HPM_P1;HPM_P2
2022/11/18 00:01:44;;;;;;;;;0.25;0.25;;;;;12.90;69.36;99440.81;4846560;29;47322;-76
2022/11/18 00:04:10;;;;;;;;;1.00;1.00;;;;;12.68;69.45;99408.28;4863801;29;45426;-77
2022/11/18 00:06:35;;;;;;;;;2.25;1.00;;;;;12.60;69.38;99398.94;4862515;29;45440;-76
2022/11/18 00:09:00;;;;;;;;;1.00;1.00;;;;;12.64;69.15;99412.13;4864049;29;45567;-76
2022/11/18 00:14:19;;;;;;;;;0.75;0.75;;;;;12.65;68.89;99428.09;4863884;29;45347;-77
2022/11/18 00:16:51;;;;;;;;;1.00;1.00;;;;;12.88;69.26;99472.19;4863080;29;45341;-76
2022/11/18 00:19:17;;;;;;;;;1.00;0.25;;;;;12.71;69.08;99437.56;4863610;29;45468;-76
2022/11/18 00:21:43;;;;;;;;;0.25;0.25;;;;;12.83;68.97;99458.25;4863257;29;45327;-76
2022/11/18 00:24:08;;;;;;;;;0.00;0.00;;;;;12.68;68.89;99443.09;4862771;29;45325;-76
2022/11/18 00:26:35;;;;;;;;;0.00;0.00;;;;;12.51;69.30;99422.72;4863200;29;45429;-76
2022/11/18 00:29:00;;;;;;;;;0.50;0.50;;;;;12.78;69.33;99468.38;4862866;29;45288;-77
2022/11/18 00:31:25;;;;;;;;;0.00;0.00;;;;;12.64;69.43;99452.28;4863334;29;45898;-76
2022/11/18 00:33:51;;;;;;;;;1.25;0.00;;;;;12.62;69.18;99456.88;4863263;29;45468;-76
2022/11/18 00:36:16;;;;;;;;;1.00;1.00;;;;;12.81;68.96;99486.06;4861997;29;45556;-76
2022/11/18 00:38:41;;;;;;;;;2.00;0.75;;;;;12.65;68.76;99467.41;4863339;29;45756;-76
2022/11/18 00:41:10;;;;;;;;;0.00;0.00;;;;;12.87;69.12;99505.28;4862928;29;47324;-76
2022/11/18 00:43:36;;;;;;;;;0.75;0.75;;;;;12.68;69.03;99483.25;4861551;29;45385;-76
2022/11/18 00:46:03;;;;;;;;;0.00;0.00;;;;;12.86;69.24;99508.91;4846994;29;45495;-76
2022/11/18 00:48:28;;;;;;;;;0.00;0.00;;;;;12.75;69.24;99493.50;4862432;29;45383;-76
2022/11/18 00:50:56;;;;;;;;;0.00;0.00;;;;;12.83;69.19;99522.50;4863423;29;46293;-76
2022/11/18 00:53:24;;;;;;;;;0.00;0.00;;;;;12.67;69.31;99502.97;4861030;29;46299;-76
2022/11/18 00:55:50;;;;;;;;;0.75;0.50;;;;;12.83;68.88;99526.97;4857900;29;45447;-76
2022/11/18 00:58:16;;;;;;;;;1.00;1.00;;;;;12.77;69.08;99536.25;4863054;29;45552;-76
2022/11/18 01:00:43;;;;;;;;;1.00;1.00;;;;;12.58;68.98;99505.25;4862582;29;46548;-76
2022/11/18 01:03:10;;;;;;;;;1.75;0.00;;;;;12.72;69.20;99527.66;4863016;29;45269;-76
2022/11/18 01:05:36;;;;;;;;;0.00;0.00;;;;;12.73;69.35;99529.34;4861042;29;45434;-76
2022/11/18 01:08:02;;;;;;;;;0.00;0.00;;;;;12.57;69.02;99502.66;4846347;29;45418;-76
2022/11/18 01:10:28;;;;;;;;;0.00;0.00;;;;;12.78;69.15;99540.69;4862962;29;46446;-77
2022/11/18 01:15:43;;;;;;;;;1.00;1.00;;;;;12.51;69.18;99497.69;4862636;29;45484;-76
2022/11/18 01:18:08;;;;;;;;;0.00;0.00;;;;;12.57;69.25;99516.06;4846577;29;45627;-76
2022/11/18 01:20:35;;;;;;;;;0.50;0.00;;;;;12.60;69.16;99515.88;4862298;29;45476;-76
2022/11/18 01:23:00;;;;;;;;;0.00;0.00;;;;;12.49;69.07;99502.25;4860089;29;45564;-76
2022/11/18 01:25:26;;;;;;;;;1.00;1.00;;;;;12.60;69.39;99526.59;4862860;29;45245;-76
2022/11/18 01:27:52;;;;;;;;;2.00;0.00;;;;;12.64;69.04;99524.56;4862009;29;45510;-76
2022/11/18 01:30:17;;;;;;;;;0.00;0.00;;;;;12.55;69.08;99516.13;4862965;29;46134;-76
2022/11/18 01:32:43;;;;;;;;;2.00;0.00;;;;;12.60;69.02;99521.22;4845783;29;45586;-76
2022/11/18 01:35:10;;;;;;;;;0.25;0.25;;;;;12.78;69.14;99552.25;4861839;29;46698;-76
2022/11/18 01:37:35;;;;;;;;;0.00;0.00;;;;;12.78;68.87;99554.06;4862743;29;45512;-76
2022/11/18 01:40:02;;;;;;;;;0.00;0.00;;;;;12.72;68.85;99543.72;4861980;29;45648;-76
2022/11/18 01:42:27;;;;;;;;;0.00;0.00;;;;;12.79;68.96;99561.97;4855940;29;45519;-76
2022/11/18 01:45:08;;;;;;;;;1.00;0.00;;;;;12.80;69.08;99560.19;4862363;29;45337;-76
2022/11/18 01:47:44;;;;;;;;;1.50;1.50;;;;;12.62;68.93;99532.69;4855200;29;45704;-76
2022/11/18 01:50:11;;;;;;;;;1.00;0.00;;;;;12.75;68.70;99565.81;4865711;29;46377;-76
2022/11/18 01:52:38;;;;;;;;;0.00;0.00;;;;;12.58;68.62;99544.56;4865512;29;45331;-76
2022/11/18 01:55:12;;;;;;;;;2.00;0.00;;;;;12.68;68.47;99558.22;4845424;29;45362;-76
2022/11/18 01:57:38;;;;;;;;;0.00;0.00;;;;;12.55;68.64;99547.41;4864573;29;45543;-76
2022/11/18 02:00:06;;;;;;;;;0.25;0.25;;;;;12.64;68.69;99560.22;4865594;29;46626;-76
2022/11/18 02:02:34;;;;;;;;;0.50;0.00;;;;;12.70;68.68;99573.25;4847783;29;45537;-76
2022/11/18 02:05:01;;;;;;;;;1.00;0.25;;;;;12.56;68.70;99549.13;4865624;29;45676;-76
2022/11/18 02:07:27;;;;;;;;;0.00;0.00;;;;;12.73;68.93;99583.78;4847285;29;45833;-76
2022/11/18 02:09:54;;;;;;;;;0.00;0.00;;;;;12.49;68.75;99555.78;4865304;29;46083;-76
2022/11/18 02:12:19;;;;;;;;;1.00;0.00;;;;;12.73;68.68;99590.94;4863721;29;45345;-76
2022/11/18 02:14:46;;;;;;;;;1.00;0.00;;;;;12.56;68.86;99565.19;4865042;29;45339;-76
2022/11/18 02:17:17;;;;;;;;;0.00;0.00;;;;;12.73;68.92;99601.66;4865173;29;45528;-76
2022/11/18 02:19:46;;;;;;;;;0.00;0.00;;;;;12.72;68.78;99602.63;4864270;29;47184;-76
2022/11/18 02:22:33;;;;;;;;;1.00;1.00;;;;;12.56;69.22;99578.56;4864972;29;45654;-76
2022/11/18 02:25:04;;;;;;;;;0.00;0.00;;;;;12.74;69.09;99608.75;4864464;29;45607;-76
2022/11/18 02:28:08;;;;;;;;;0.00;0.00;;;;;12.74;68.87;99606.06;4864753;29;45482;-76
2022/11/18 02:30:47;;;;;;;;;0.00;0.00;;;;;12.71;68.78;99607.13;4829422;29;45598;-76
2022/11/18 02:33:22;;;;;;;;;0.00;0.00;;;;;12.55;68.86;99576.84;4841101;29;45466;-76
2022/11/18 02:36:06;;;;;;;;;0.00;0.00;;;;;12.71;68.86;99616.94;4862093;29;45572;-76
2022/11/18 02:38:40;;;;;;;;;1.00;1.00;;;;;12.46;69.05;99585.41;4861566;29;45567;-76
2022/11/18 02:41:14;;;;;;;;;0.75;0.75;;;;;12.41;69.07;99577.66;4864348;29;46733;-76
2022/11/18 02:43:47;;;;;;;;;0.00;0.00;;;;;12.56;68.78;99602.66;4864825;29;45334;-76
2022/11/18 02:46:19;;;;;;;;;0.00;0.00;;;;;12.51;68.89;99599.38;4847779;29;45741;-76
2022/11/18 02:48:49;;;;;;;;;0.00;0.00;;;;;12.51;68.89;99602.06;4860361;29;45387;-76
2022/11/18 02:51:20;;;;;;;;;0.00;0.00;;;;;12.56;69.05;99622.28;4864359;29;47038;-76
2022/11/18 02:53:48;;;;;;;;;0.00;0.00;;;;;12.45;68.99;99595.25;4865003;29;45381;-76
2022/11/18 02:56:16;;;;;;;;;2.25;0.00;;;;;12.43;68.98;99599.84;4843015;29;45452;-76
2022/11/18 02:58:41;;;;;;;;;2.00;1.00;;;;;12.64;68.99;99640.53;4847765;29;45491;-76
2022/11/18 03:01:17;;;;;;;;;0.50;0.00;;;;;12.36;69.07;99594.00;4864193;29;45511;-77
2022/11/18 03:03:42;;;;;;;;;1.25;0.00;;;;;12.53;68.91;99625.13;4864663;29;45391;-76
2022/11/18 03:06:20;;;;;;;;;1.75;0.00;;;;;12.63;69.23;99646.88;4864779;29;45440;-76
2022/11/18 03:08:51;;;;;;;;;0.00;0.00;;;;;12.46;68.81;99621.06;4859419;29;45407;-76
2022/11/18 03:11:21;;;;;;;;;0.75;0.00;;;;;12.57;69.20;99656.09;4863606;29;45595;-76
2022/11/18 03:14:02;;;;;;;;;0.00;0.00;;;;;12.56;69.18;99657.06;4841987;29;45344;-77
2022/11/18 03:16:35;;;;;;;;;0.50;0.50;;;;;12.32;69.08;99618.34;4862336;29;45434;-76
2022/11/18 03:19:19;;;;;;;;;0.00;0.00;;;;;12.48;69.04;99650.41;4864555;29;45397;-76
2022/11/18 03:21:58;;;;;;;;;0.00;0.00;;;;;12.24;69.38;99616.09;4847206;29;47086;-76
2022/11/18 03:24:31;;;;;;;;;0.00;0.00;;;;;12.48;69.30;99656.66;4863737;29;45775;-76
2022/11/18 03:27:24;;;;;;;;;1.00;0.00;;;;;12.38;69.22;99642.94;4864760;29;45599;-76
2022/11/18 03:30:02;;;;;;;;;0.00;0.00;;;;;12.37;69.29;99645.69;4862790;29;46454;-76
2022/11/18 03:32:32;;;;;;;;;0.00;0.00;;;;;12.25;69.35;99633.03;4863035;29;47490;-77
2022/11/18 03:35:08;;;;;;;;;0.00;0.00;;;;;12.38;69.32;99650.09;4863666;29;45566;-76
2022/11/18 03:37:37;;;;;;;;;0.00;0.00;;;;;12.44;69.32;99664.94;4864646;29;45429;-76
2022/11/18 03:40:08;;;;;;;;;0.00;0.00;;;;;12.28;69.56;99640.84;4863585;29;46328;-76
2022/11/18 03:42:40;;;;;;;;;0.00;0.00;;;;;12.07;69.40;99619.72;4864158;29;46611;-77
2022/11/18 03:45:14;;;;;;;;;0.00;0.00;;;;;12.35;69.57;99669.00;4863535;29;45455;-76
2022/11/18 03:47:47;;;;;;;;;0.00;0.00;;;;;12.29;69.30;99664.00;4863532;29;45463;-76
2022/11/18 03:50:19;;;;;;;;;0.00;0.00;;;;;12.37;69.48;99680.47;4863205;29;45678;-76
2022/11/18 03:52:47;;;;;;;;;0.00;0.00;;;;;12.20;69.69;99668.06;4864199;29;45435;-76
2022/11/18 03:55:38;;;;;;;;;0.00;0.00;;;;;12.35;69.53;99691.28;4861944;29;45552;-76
2022/11/18 03:58:36;;;;;;;;;1.00;1.00;;;;;12.19;69.46;99669.84;4858936;29;45322;-76
2022/11/18 04:01:12;;;;;;;;;0.25;0.25;;;;;12.13;69.69;99663.97;4861363;29;45703;-76
2022/11/18 04:03:37;;;;;;;;;1.00;1.00;;;;;12.28;69.53;99699.72;4856829;29;45426;-76
2022/11/18 04:06:36;;;;;;;;;1.00;0.00;;;;;12.06;69.67;99663.47;4864103;29;45419;-76
2022/11/18 04:09:10;;;;;;;;;1.25;0.00;;;;;12.29;69.62;99707.66;4843758;29;45491;-76
2022/11/18 04:12:02;;;;;;;;;0.00;0.00;;;;;12.04;69.54;99670.72;4862491;29;45665;-76
2022/11/18 04:14:39;;;;;;;;;0.00;0.00;;;;;12.22;69.36;99714.31;4863136;29;46391;-76
2022/11/18 04:17:12;;;;;;;;;0.00;0.00;;;;;12.04;69.74;99689.44;4863821;29;45617;-76
2022/11/18 04:19:38;;;;;;;;;1.25;0.00;;;;;12.03;69.76;99703.78;4863529;29;45652;-76
2022/11/18 04:22:05;;;;;;;;;0.00;0.00;;;;;12.08;69.86;99717.75;4863190;29;45556;-76
2022/11/18 04:24:30;;;;;;;;;0.25;0.00;;;;;11.98;69.70;99708.53;4862918;29;45504;-76
2022/11/18 04:26:55;;;;;;;;;2.50;0.00;;;;;12.07;69.80;99723.19;4862992;29;45625;-76
2022/11/18 04:29:21;;;;;;;;;0.00;0.00;;;;;12.18;69.99;99748.41;4859459;29;45627;-76
2022/11/18 04:31:46;;;;;;;;;0.50;0.25;;;;;11.96;69.78;99715.75;4862770;29;45565;-76
2022/11/18 04:34:12;;;;;;;;;0.25;0.25;;;;;11.87;70.49;99699.22;4863462;29;46522;-76
2022/11/18 04:36:37;;;;;;;;;0.50;0.00;;;;;11.82;70.26;99690.59;4862791;29;45356;-76
2022/11/18 04:39:02;;;;;;;;;0.00;0.00;;;;;12.12;69.82;99746.06;4863491;29;45306;-76
2022/11/18 04:44:12;;;;;;;;;0.25;0.25;;;;;12.20;69.82;99767.06;4858057;29;45492;-76
2022/11/18 04:46:39;;;;;;;;;0.00;0.00;;;;;12.10;69.94;99752.47;4861488;29;45260;-76
2022/11/18 04:49:05;;;;;;;;;0.50;0.50;;;;;11.99;69.68;99739.66;4863710;29;45421;-76
2022/11/18 04:51:30;;;;;;;;;0.00;0.00;;;;;12.15;70.59;99775.31;4863346;29;45315;-76
2022/11/18 04:53:56;;;;;;;;;0.25;0.25;;;;;12.10;69.85;99749.78;4862439;29;45411;-76
2022/11/18 04:56:21;;;;;;;;;1.00;0.00;;;;;11.94;69.75;99745.25;4861732;29;50865;-76
2022/11/18 04:58:46;;;;;;;;;0.75;0.00;;;;;12.02;69.99;99756.38;4862704;29;45293;-76
2022/11/18 05:01:12;;;;;;;;;0.50;0.50;;;;;12.13;69.98;99776.34;4863260;29;45509;-76
2022/11/18 05:03:37;;;;;;;;;1.00;1.00;;;;;11.93;69.74;99743.53;4846066;29;47581;-77
2022/11/18 05:06:02;;;;;;;;;1.00;1.00;;;;;11.92;69.74;99747.13;4845401;29;45492;-76
2022/11/18 05:08:28;;;;;;;;;2.00;1.00;;;;;11.94;69.81;99744.38;4863098;29;45471;-76
2022/11/18 05:12:47;;;;;;;;;1.25;0.25;;;;;11.84;69.85;99742.19;4862638;29;45475;-76
2022/11/18 05:13:38;;;;;;;;;0.00;0.00;;;;;11.92;70.04;99747.13;4858215;29;46211;-76
2022/11/18 05:16:04;;;;;;;;;0.25;0.25;;;;;11.88;69.99;99750.91;4862432;29;45431;-76
2022/11/18 05:18:29;;;;;;;;;1.00;1.00;;;;;11.86;69.94;99747.44;4863449;29;45555;-76
2022/11/18 05:20:54;;;;;;;;;0.00;0.00;;;;;11.74;69.76;99724.03;4862043;29;45377;-76
2022/11/18 05:23:20;;;;;;;;;0.25;0.25;;;;;11.88;69.65;99758.94;4864089;29;47635;-76
2022/11/18 05:25:45;;;;;;;;;1.00;1.00;;;;;11.87;69.88;99760.72;4849049;29;46700;-76
2022/11/18 05:28:10;;;;;;;;;1.00;1.00;;;;;11.78;69.79;99760.38;4865253;29;45485;-76
2022/11/18 05:30:36;;;;;;;;;0.00;0.00;;;;;11.78;69.96;99766.56;4866134;29;45545;-76
2022/11/18 05:33:01;;;;;;;;;1.00;0.75;;;;;11.78;69.66;99766.56;4849110;29;46333;-76
2022/11/18 05:35:26;;;;;;;;;5.00;2.00;;;;;11.82;69.84;99773.47;4864912;29;45541;-76
2022/11/18 05:37:52;;;;;;;;;0.00;0.00;;;;;12.01;69.46;99800.16;4866353;29;45466;-76
2022/11/18 05:40:17;;;;;;;;;1.00;0.00;;;;;11.76;69.42;99759.56;4865171;29;45540;-76
2022/11/18 05:45:26;;;;;;;;;1.00;1.00;;;;;11.75;69.75;99777.41;4865379;29;45674;-76
2022/11/18 05:48:02;;;;;;;;;2.00;1.00;;;;;11.75;69.62;99785.44;4865901;29;45380;-76
2022/11/18 05:50:28;;;;;;;;;1.25;0.75;;;;;11.72;69.61;99776.72;4845842;29;45281;-76
2022/11/18 05:52:53;;;;;;;;;0.50;0.00;;;;;11.69;69.96;99783.09;4865728;29;45429;-76
2022/11/18 05:55:21;;;;;;;;;1.00;1.00;;;;;11.76;69.85;99789.84;4859945;29;45389;-76
2022/11/18 05:57:46;;;;;;;;;1.00;1.00;;;;;11.72;69.76;99788.28;4864850;29;45489;-76
2022/11/18 06:00:12;;;;;;;;;1.75;1.00;;;;;11.66;69.53;99792.16;4865580;29;45480;-76
2022/11/18 06:02:41;;;;;;;;;3.00;1.50;;;;;11.79;70.03;99813.72;4864910;29;45442;-76
2022/11/18 06:05:08;;;;;;;;;0.00;0.00;;;;;11.93;69.42;99830.91;4859786;29;45431;-76
2022/11/18 06:07:40;;;;;;;;;0.75;0.75;;;;;11.74;69.48;99805.09;4845933;29;45446;-76
2022/11/18 06:10:06;;;;;;;;;2.00;0.25;;;;;11.77;69.57;99812.09;4842256;29;45615;-76
2022/11/18 06:12:40;;;;;;;;;0.00;0.00;;;;;11.93;69.33;99842.47;4865358;29;45496;-76
2022/11/18 06:15:09;;;;;;;;;1.00;1.00;;;;;11.92;69.35;99850.59;4865372;29;45800;-76
2022/11/18 06:17:42;;;;;;;;;1.00;0.75;;;;;11.68;69.47;99830.34;4865657;29;46126;-76
2022/11/18 06:20:08;;;;;;;;;2.00;1.00;;;;;11.63;69.54;99821.69;4862630;29;45317;-76
2022/11/18 06:22:34;;;;;;;;;1.25;1.00;;;;;11.58;69.13;99822.91;4863011;29;47334;-76
2022/11/18 06:25:00;;;;;;;;;1.00;1.00;;;;;11.81;69.33;99870.69;4864702;29;45667;-76
2022/11/18 06:27:25;;;;;;;;;1.00;1.00;;;;;11.82;69.47;99874.22;4865519;29;45397;-76
2022/11/18 06:29:51;;;;;;;;;1.00;1.00;;;;;11.64;69.51;99843.94;4845545;29;45381;-76
2022/11/18 06:32:16;;;;;;;;;2.50;0.50;;;;;11.77;69.30;99870.91;4865212;29;45488;-76
2022/11/18 06:34:41;;;;;;;;;2.00;1.00;;;;;11.64;69.41;99852.84;4847697;29;45708;-76
2022/11/18 06:37:19;;;;;;;;;1.25;1.25;;;;;11.66;69.68;99850.94;4864263;29;46055;-76
2022/11/18 06:39:45;;;;;;;;;2.00;1.00;;;;;11.68;69.48;99857.09;4865004;29;45424;-76
2022/11/18 06:43:37;;;;;;;;;1.75;1.00;;;;;11.77;69.43;99877.13;4864717;29;45443;-76
2022/11/18 06:44:56;;;;;;;;;1.00;1.00;;;;;11.67;69.12;99862.50;4864564;29;45818;-76
2022/11/18 06:47:21;;;;;;;;;3.50;1.00;;;;;11.51;69.47;99838.38;4847634;29;45416;-76
2022/11/18 06:49:46;;;;;;;;;1.00;1.00;;;;;11.62;69.25;99862.72;4864915;29;45369;-76
2022/11/18 06:52:12;;;;;;;;;2.00;1.00;;;;;11.57;69.33;99859.44;4847202;29;45943;-76
2022/11/18 06:54:37;;;;;;;;;3.75;1.75;;;;;11.82;69.32;99907.16;4864637;29;45395;-76
2022/11/18 06:57:02;;;;;;;;;1.50;1.00;;;;;11.54;68.99;99866.75;4861561;29;45518;-76
2022/11/18 06:59:28;;;;;;;;;2.50;1.00;;;;;11.61;68.94;99881.50;4864245;29;45443;-76
2022/11/18 07:01:53;;;;;;;;;0.50;0.50;;;;;11.59;69.32;99891.44;4864665;29;45524;-76
2022/11/18 07:04:19;;;;;;;;;2.25;2.00;;;;;11.59;69.44;99894.94;4864021;29;45511;-76
2022/11/18 07:06:44;;;;;;;;;3.75;2.00;;;;;11.54;69.25;99897.00;4864943;29;45338;-76
2022/11/18 07:09:09;;;;;;;;;5.00;4.00;;;;;11.66;69.32;99925.81;4847750;29;45746;-76
2022/11/18 07:11:37;;;;;;;;;1.25;1.25;;;;;11.43;69.49;99900.22;4862817;29;45395;-76
2022/11/18 07:14:02;;;;;;;;;2.50;2.00;;;;;11.39;69.47;99903.97;4847674;29;45810;-76
2022/11/18 07:16:27;;;;;;;;;2.75;2.00;;;;;11.49;69.62;99923.09;4863329;29;45405;-76
2022/11/18 07:18:54;;;;;;;;;3.25;2.00;;;;;11.37;69.45;99913.00;4847051;29;45655;-76
2022/11/18 07:21:24;;;;;;;;;2.00;2.00;;;;;11.59;69.64;99951.09;4863853;29;45425;-76
2022/11/18 07:23:50;;;;;;;;;3.00;1.00;;;;;11.46;69.66;99944.59;4861132;29;45358;-76
2022/11/18 07:26:16;;;;;;;;;1.25;1.00;;;;;11.38;69.71;99939.66;4864291;29;45396;-76
2022/11/18 07:28:42;;;;;;;;;2.50;2.00;;;;;11.37;69.63;99935.25;4863638;29;45338;-71
2022/11/18 07:31:16;;;;;;;;;5.50;2.50;;;;;11.37;69.77;99937.06;4861797;29;46364;-71
2022/11/18 07:33:42;;;;;;;;;6.50;2.00;;;;;11.41;69.31;99950.22;4864660;29;45430;-70
2022/11/18 07:36:14;;;;;;;;;3.00;3.00;;;;;11.30;69.66;99931.16;4858542;29;45413;-70
2022/11/18 07:38:40;;;;;;;;;3.25;2.00;;;;;11.35;69.72;99947.81;4865178;29;45345;-70
2022/11/18 07:41:11;;;;;;;;;3.00;1.50;;;;;11.43;69.59;99971.50;4864472;29;45683;-76
2022/11/18 07:43:37;;;;;;;;;3.00;2.50;;;;;11.34;69.74;99958.56;4854730;29;45634;-76
2022/11/18 07:46:12;;;;;;;;;2.00;2.00;;;;;11.44;69.72;99976.78;4865363;29;45447;-76
2022/11/18 07:48:37;;;;;;;;;2.00;2.00;;;;;11.44;69.58;99967.88;4865113;29;45532;-76
2022/11/18 07:51:03;;;;;;;;;1.00;1.00;;;;;11.44;69.75;99982.13;4865082;29;46296;-76
2022/11/18 07:53:33;;;;;;;;;2.25;2.00;;;;;11.35;69.89;99960.31;4864128;29;45277;-76
2022/11/18 07:55:58;;;;;;;;;2.00;2.00;;;;;11.27;69.86;99953.53;4851918;29;45499;-77
2022/11/18 07:58:24;;;;;;;;;4.00;2.50;;;;;11.49;69.74;100000.59;4845607;29;45930;-75
2022/11/18 08:00:49;;;;;;;;;2.50;2.00;;;;;11.17;69.83;99943.34;4842519;29;46208;-74
2022/11/18 08:03:14;;;;;;;;;2.00;1.00;;;;;11.26;70.00;99973.19;4843379;29;46273;-75
2022/11/18 08:05:40;;;;;;;;;3.00;2.00;;;;;11.25;69.98;99976.78;4860445;29;46881;-74
2022/11/18 08:08:05;;;;;;;;;1.75;1.25;;;;;11.24;69.90;99968.84;4863038;29;45464;-74
2022/11/18 08:10:31;;;;;;;;;2.50;1.00;;;;;11.30;70.27;99985.44;4864699;29;46662;-74
2022/11/18 08:13:01;;;;;;;;;2.00;1.25;;;;;11.29;70.22;99993.53;4864510;29;45481;-74
2022/11/18 08:15:27;;;;;;;;;4.00;1.75;;;;;11.22;70.32;99978.72;4860677;29;45437;-74
2022/11/18 08:17:52;;;;;;;;;1.25;1.25;;;;;11.23;70.27;99975.13;4860294;29;45458;-74
2022/11/18 08:20:17;;;;;;;;;3.00;2.50;;;;;11.34;70.49;99985.28;4864140;29;46293;-74
2022/11/18 08:22:43;;;;;;;;;3.50;3.25;;;;;11.28;70.29;99978.44;4863081;29;45348;-74
2022/11/18 08:25:08;;;;;;;;;0.50;0.50;;;;;11.42;70.20;99996.50;4864607;29;45452;-74
2022/11/18 08:27:34;;;;;;;;;2.00;2.00;;;;;11.54;70.35;100025.28;4857689;29;45403;-77
2022/11/18 08:29:59;;;;;;;;;2.75;1.25;;;;;11.36;70.52;99999.44;4863270;29;47271;-76
2022/11/18 08:32:24;;;;;;;;;1.75;1.75;;;;;11.45;70.11;100023.94;4863872;29;45502;-77
2022/11/18 08:34:50;;;;;;;;;3.75;2.75;;;;;11.55;70.59;100034.19;4844743;29;45443;-77
2022/11/18 08:37:16;;;;;;;;;1.25;0.50;;;;;11.26;70.50;99985.66;4842101;29;45637;-75
2022/11/18 08:39:42;;;;;;;;;1.25;1.25;;;;;11.44;70.19;100019.53;4839017;29;47137;-70
2022/11/18 08:42:08;;;;;;;;;2.75;1.25;;;;;11.47;70.45;100021.19;4862135;29;45911;-76
2022/11/18 08:45:14;;;;;;;;;3.50;1.75;;;;;11.55;70.69;100043.06;4862948;29;45486;-72
2022/11/18 08:47:45;;;;;;;;;1.75;1.00;;;;;11.57;70.71;100040.31;4843159;29;45563;-71
2022/11/18 08:50:11;;;;;;;;;2.00;2.00;;;;;11.48;70.37;100025.59;4859605;29;46402;-75
2022/11/18 08:52:37;;;;;;;;;2.00;1.00;;;;;11.55;70.62;100035.06;4862772;29;45584;-75
2022/11/18 08:55:03;;;;;;;;;0.50;0.50;;;;;11.65;70.76;100046.19;4862446;29;45563;-75
2022/11/18 08:57:29;;;;;;;;;2.00;1.00;;;;;11.50;70.50;100013.88;4862436;29;45453;-75
2022/11/18 08:59:54;;;;;;;;;1.00;1.00;;;;;11.60;70.66;100022.34;4848207;29;47053;-80
2022/11/18 09:02:22;;;;;;;;;2.25;2.25;;;;;11.75;70.75;100049.28;4861776;29;45543;-75
2022/11/18 09:04:51;;;;;;;;;2.00;1.25;;;;;11.63;70.52;100026.69;4865810;29;45448;-75
2022/11/18 09:07:20;;;;;;;;;1.00;1.00;;;;;11.65;70.68;100024.78;4842331;29;45542;-75
2022/11/18 09:09:46;;;;;;;;;2.00;1.00;;;;;11.83;70.59;100055.13;4862836;29;45580;-75
2022/11/18 09:12:13;;;;;;;;;2.00;0.00;;;;;11.75;70.50;100034.09;4861546;29;45323;-75
2022/11/18 09:14:41;;;;;;;;;3.25;2.00;;;;;11.73;70.76;100021.72;4861004;29;45451;-76
2022/11/18 09:17:07;;;;;;;;;4.25;3.50;;;;;11.96;70.52;100048.28;4862710;29;45521;-75
2022/11/18 09:19:33;;;;;;;;;1.25;1.25;;;;;11.83;70.41;100029.25;4861284;29;45373;-74
2022/11/18 09:21:58;;;;;;;;;1.00;1.00;;;;;11.81;70.43;100020.44;4861124;29;45399;-75
2022/11/18 09:24:24;;;;;;;;;3.50;3.00;;;;;12.09;70.37;100063.69;4857419;29;45606;-77
2022/11/18 09:26:49;;;;;;;;;2.00;1.00;;;;;11.96;70.38;100044.72;4866326;29;45480;-76
2022/11/18 09:29:15;;;;;;;;;2.00;2.00;;;;;11.91;70.31;100030.66;4862281;29;45465;-73
2022/11/18 09:31:40;;;;;;;;;1.00;1.00;;;;;11.96;70.09;100034.00;4860048;29;46695;-74
2022/11/18 09:34:05;;;;;;;;;2.50;1.25;;;;;12.05;70.30;100050.47;4859173;29;45348;-74
2022/11/18 09:36:31;;;;;;;;;2.75;1.00;;;;;12.21;70.25;100069.31;4844723;29;46039;-73
2022/11/18 09:38:58;;;;;;;;;2.00;2.00;;;;;12.05;70.41;100036.25;4861269;29;45614;-73
2022/11/18 09:41:35;;;;;;;;;4.00;3.25;;;;;12.23;70.08;100067.44;4861557;29;45615;-73
2022/11/18 09:44:36;;;;;;;;;2.50;1.00;;;;;12.27;70.27;100073.47;4855539;29;45506;-72
2022/11/18 09:47:30;;;;;;;;;4.00;2.25;;;;;12.31;70.07;100074.19;4860733;29;47053;-72
2022/11/18 09:50:06;;;;;;;;;0.00;0.00;;;;;12.20;69.97;100046.16;4861036;29;46500;-71
2022/11/18 09:52:54;;;;;;;;;0.25;0.25;;;;;12.20;70.06;100048.00;4859535;29;45722;-72
2022/11/18 09:55:20;;;;;;;;;1.00;1.00;;;;;12.14;70.24;100032.22;4858316;29;45715;-70
2022/11/18 09:57:51;;;;;;;;;0.00;0.00;;;;;12.33;69.98;100057.13;4859575;29;45623;-72
2022/11/18 10:00:23;;;;;;;;;3.00;3.00;;;;;12.27;69.96;100043.19;4863419;29;45472;-72
2022/11/18 10:03:12;;;;;;;;;2.50;1.00;;;;;12.32;69.61;100054.53;4859955;29;45803;-72
2022/11/18 10:05:52;;;;;;;;;2.00;2.00;;;;;12.59;70.27;100090.59;4863780;29;45803;-72
2022/11/18 10:08:30;;;;;;;;;2.25;0.75;;;;;12.27;69.61;100035.16;4841417;29;45487;-72
2022/11/18 10:11:09;;;;;;;;;1.00;1.00;;;;;12.67;69.49;100087.53;4862990;29;45541;-73
2022/11/18 10:13:47;;;;;;;;;3.00;1.25;;;;;12.58;69.66;100074.63;4863145;29;45654;-72
2022/11/18 10:16:42;;;;;;;;;2.00;0.75;;;;;12.75;69.72;100095.16;4863873;29;45563;-73
2022/11/18 10:19:20;;;;;;;;;2.00;0.00;;;;;12.78;69.71;100098.56;4847261;29;45701;-73
2022/11/18 10:21:57;;;;;;;;;2.25;0.00;;;;;12.63;69.05;100059.19;4864193;29;45541;-73
2022/11/18 10:24:25;;;;;;;;;0.50;0.50;;;;;12.62;69.66;100062.78;4864115;29;45807;-73
2022/11/18 10:26:56;;;;;;;;;1.00;1.00;;;;;12.70;69.25;100081.16;4863874;29;45535;-73
2022/11/18 10:29:22;;;;;;;;;1.00;1.00;;;;;12.71;69.23;100072.16;4855486;29;45676;-72
2022/11/18 10:32:04;;;;;;;;;0.25;0.25;;;;;12.73;69.47;100071.16;4861821;29;45493;-73
2022/11/18 10:34:32;;;;;;;;;3.00;1.00;;;;;12.77;69.50;100077.19;4862808;29;45365;-72
2022/11/18 10:37:03;;;;;;;;;2.00;1.00;;;;;12.70;69.43;100067.75;4845666;29;45725;-72
2022/11/18 10:39:29;;;;;;;;;1.00;1.00;;;;;12.80;69.13;100060.97;4857226;29;45353;-72
2022/11/18 10:42:02;;;;;;;;;2.00;1.00;;;;;13.05;69.26;100091.84;4862428;29;46598;-72
2022/11/18 10:44:41;;;;;;;;;0.25;0.25;;;;;12.97;69.29;100077.00;4854200;29;46668;-72
2022/11/18 10:47:23;;;;;;;;;1.00;0.75;;;;;13.00;69.17;100076.00;4861151;29;45382;-72
2022/11/18 10:49:54;;;;;;;;;0.75;0.75;;;;;12.94;68.94;100061.09;4861390;29;45359;-72
2022/11/18 10:52:22;;;;;;;;;3.00;1.00;;;;;12.92;69.05;100060.31;4859304;29;45461;-70
2022/11/18 10:55:18;;;;;;;;;1.00;1.00;;;;;13.08;69.05;100086.28;4861877;29;45804;-74
2022/11/18 10:57:44;;;;;;;;;1.00;0.25;;;;;13.04;68.73;100068.66;4857831;29;45526;-74
2022/11/18 11:00:46;;;;;;;;;1.00;0.00;;;;;13.32;68.66;100108.28;4861530;29;45435;-75
2022/11/18 11:03:25;;;;;;;;;2.50;0.00;;;;;13.34;68.66;100103.69;4822147;29;46598;-74
2022/11/18 11:06:33;;;;;;;;;1.00;1.00;;;;;13.40;68.45;100114.09;4857892;29;45348;-71
2022/11/18 11:09:02;;;;;;;;;2.00;0.25;;;;;13.29;68.51;100077.09;4802014;29;45577;-70
2022/11/18 11:11:30;;;;;;;;;0.75;0.00;;;;;13.49;67.93;100104.69;4800311;29;45612;-71
2022/11/18 11:14:18;;;;;;;;;3.25;0.75;;;;;13.51;68.78;100106.34;4831672;29;45415;-73
2022/11/18 11:17:02;;;;;;;;;1.25;1.25;;;;;13.55;68.54;100108.81;4846992;29;45633;-74
2022/11/18 11:19:57;;;;;;;;;1.00;1.00;;;;;13.57;68.27;100112.31;4845693;29;45508;-74
2022/11/18 11:22:23;;;;;;;;;0.00;0.00;;;;;13.43;68.44;100091.59;4854783;29;45623;-74
2022/11/18 11:24:48;;;;;;;;;1.00;1.00;;;;;13.42;68.30;100079.16;4847035;29;46755;-74
2022/11/18 11:27:23;;;;;;;;;0.75;0.75;;;;;13.64;68.18;100116.38;4859871;29;45381;-74
2022/11/18 11:29:52;;;;;;;;;1.00;1.00;;;;;13.67;67.89;100113.53;4863263;29;45547;-74
2022/11/18 11:32:39;;;;;;;;;3.00;1.00;;;;;13.70;67.77;100116.06;4860098;29;45392;-74
2022/11/18 11:35:28;;;;;;;;;1.00;1.00;;;;;13.72;67.68;100114.13;4860404;29;45456;-74
2022/11/18 11:38:05;;;;;;;;;1.00;1.00;;;;;13.74;67.78;100117.59;4861589;29;45562;-74
2022/11/18 11:41:01;;;;;;;;;2.25;1.00;;;;;13.69;67.45;100106.25;4844378;29;45387;-74
2022/11/18 11:43:45;;;;;;;;;1.00;1.00;;;;;13.75;67.21;100113.97;4844282;29;45656;-74
2022/11/18 11:46:13;;;;;;;;;2.50;1.00;;;;;13.76;67.06;100112.16;4840954;29;46345;-73
2022/11/18 11:48:51;;;;;;;;;3.25;0.25;;;;;13.77;66.64;100111.22;4842035;29;45532;-74
2022/11/18 11:51:23;;;;;;;;;3.50;3.00;;;;;13.77;67.05;100114.75;4844363;29;45339;-73
2022/11/18 11:54:05;;;;;;;;;2.00;0.25;;;;;13.77;66.92;100116.56;4843454;29;45483;-74
2022/11/18 11:56:45;;;;;;;;;0.00;0.00;;;;;13.80;66.65;100116.38;4844077;29;45557;-74
2022/11/18 11:59:16;;;;;;;;;3.00;2.00;;;;;13.82;66.76;100112.66;4838350;29;45639;-74